Time;durP1;ratioP1;P1;durP2;ratioP2;P2;SDS_P1;SDS_P2;PMS_P1;PMS_P2;Temp;Humidity;BMP_temperature;BMP_pressure;BME280_temperature;BME280_humidity;BME280_pressure;Samples;Min_cycle;Max_cycle;Signal;HPM_P1;HPM_P2
2019/07/24 00:02:02;;;;;;;5;2.5;;;;;;;32.9;29.45898;1002.419;;;;
2019/07/24 00:04:27;;;;;;;4.8;2.6;;;;;;;32.89;29.45801;1002.421;;;;
2019/07/24 00:07:46;;;;;;;2.9;2.3;;;;;;;32.88;29.45703;1002.407;;;;
2019/07/24 00:10:11;;;;;;;4.4;2.4;;;;;;;32.87;29.46973;1002.43;;;;
2019/07/24 00:12:37;;;;;;;4.4;2.3;;;;;;;32.86;29.47949;1002.384;;;;
2019/07/24 00:15:02;;;;;;;3;2.2;;;;;;;32.86;29.47949;1002.427;;;;
2019/07/24 00:17:27;;;;;;;3.3;2.2;;;;;;;32.85;29.50488;1002.455;;;;
2019/07/24 00:19:52;;;;;;;3.5;2.2;;;;;;;32.84;29.49121;1002.459;;;;
2019/07/24 00:22:18;;;;;;;2.6;2.2;;;;;;;32.83;29.51563;1002.43;;;;
2019/07/24 00:24:43;;;;;;;4.8;2.5;;;;;;;32.83;29.50293;1002.401;;;;
2019/07/24 00:27:09;;;;;;;3.3;2.4;;;;;;;32.82;29.51563;1002.408;;;;
2019/07/24 00:27:38;;;;;;;3.4;2.3;;;;;;;32.82;29.50293;1002.403;;;;
2019/07/24 00:30:04;;;;;;;4.8;2.6;;;;;;;32.82;29.51563;1002.387;;;;
2019/07/24 00:32:29;;;;;;;3;2.4;;;;;;;32.81;29.53906;1002.421;;;;
2019/07/24 00:35:48;;;;;;;2.9;2.2;;;;;;;32.81;29.53809;1002.401;;;;
2019/07/24 00:38:13;;;;;;;4.6;2.4;;;;;;;32.8;29.53809;1002.358;;;;
2019/07/24 00:40:38;;;;;;;4.3;2.4;;;;;;;32.8;29.55078;1002.404;;;;
2019/07/24 00:44:51;;;;;;;5;2.1;;;;;;;32.8;29.52539;1002.394;;;;
2019/07/24 00:47:16;;;;;;;3.4;2.2;;;;;;;32.79;29.52539;1002.388;;;;
2019/07/24 00:49:41;;;;;;;4.1;2.1;;;;;;;32.79;29.52441;1002.379;;;;
2019/07/24 00:52:07;;;;;;;3.6;2.3;;;;;;;32.77;29.52441;1002.342;;;;
2019/07/24 00:54:32;;;;;;;3.9;2.2;;;;;;;32.76;29.53613;1002.314;;;;
2019/07/24 00:56:58;;;;;;;2.6;2.4;;;;;;;32.75;29.53418;1002.313;;;;
2019/07/24 00:59:23;;;;;;;5.7;2.2;;;;;;;32.75;29.54688;1002.302;;;;
2019/07/24 01:01:49;;;;;;;3.3;2.2;;;;;;;32.74;29.54688;1002.316;;;;
2019/07/24 01:04:14;;;;;;;4.1;2.1;;;;;;;32.74;29.55859;1002.295;;;;
2019/07/24 01:06:39;;;;;;;3.9;2.3;;;;;;;32.73;29.55859;1002.275;;;;
2019/07/24 01:09:05;;;;;;;3.8;2.1;;;;;;;32.72;29.57031;1002.256;;;;
2019/07/24 01:11:29;;;;;;;3;2.4;;;;;;;32.71;29.58203;1002.259;;;;
2019/07/24 01:13:55;;;;;;;3;2.5;;;;;;;32.7;29.58105;1002.252;;;;
2019/07/24 01:16:20;;;;;;;3.4;2.3;;;;;;;32.69;29.60547;1002.236;;;;
2019/07/24 01:18:46;;;;;;;2.7;2.2;;;;;;;32.69;29.5918;1002.173;;;;
2019/07/24 01:21:10;;;;;;;4.3;2.5;;;;;;;32.68;29.60449;1002.135;;;;
2019/07/24 01:23:36;;;;;;;5.2;2.2;;;;;;;32.68;29.61719;1002.093;;;;
2019/07/24 01:26:02;;;;;;;2.8;2.3;;;;;;;32.68;29.61621;1002.062;;;;
2019/07/24 01:28:27;;;;;;;3.5;2.4;;;;;;;32.66;29.66406;1002.097;;;;
2019/07/24 01:30:52;;;;;;;3.3;2.3;;;;;;;32.66;29.66406;1002.088;;;;
2019/07/24 01:33:17;;;;;;;3.5;2.1;;;;;;;32.64;29.6875;1002.09;;;;
2019/07/24 01:35:43;;;;;;;3.2;2.2;;;;;;;32.64;29.67578;1002.073;;;;
2019/07/24 01:38:08;;;;;;;3.6;2.3;;;;;;;32.63;29.6748;1002.034;;;;
2019/07/24 01:40:33;;;;;;;3.9;2.7;;;;;;;32.63;29.6748;1001.986;;;;
2019/07/24 01:42:59;;;;;;;3.2;2.2;;;;;;;32.63;29.65039;1001.916;;;;
2019/07/24 01:45:24;;;;;;;2.8;2;;;;;;;32.62;29.6748;1001.91;;;;
2019/07/24 01:47:49;;;;;;;3.1;2.5;;;;;;;32.62;29.66211;1001.94;;;;
2019/07/24 01:50:14;;;;;;;3.1;2.1;;;;;;;32.62;29.67383;1001.913;;;;
2019/07/24 01:50:54;;;;;;;3.5;2.4;;;;;;;32.62;29.66113;1001.914;;;;
2019/07/24 01:53:19;;;;;;;4.6;2.4;;;;;;;32.61;29.66113;1001.954;;;;
2019/07/24 01:55:44;;;;;;;3.6;2.3;;;;;;;32.61;29.66113;1001.87;;;;
2019/07/24 01:58:10;;;;;;;3.4;2.3;;;;;;;32.61;29.66113;1001.94;;;;
2019/07/24 02:00:35;;;;;;;3.1;2.4;;;;;;;32.61;29.67285;1001.959;;;;
2019/07/24 02:03:00;;;;;;;3.9;2.5;;;;;;;32.6;29.67285;1001.982;;;;
2019/07/24 02:06:19;;;;;;;3.2;2.2;;;;;;;32.58;29.70898;1001.966;;;;
2019/07/24 02:08:45;;;;;;;3;2.2;;;;;;;32.57;29.7207;1001.976;;;;
2019/07/24 02:11:10;;;;;;;2.2;2;;;;;;;32.56;29.71875;1001.93;;;;
2019/07/24 02:13:35;;;;;;;3.2;2.3;;;;;;;32.56;29.71973;1001.927;;;;
2019/07/24 02:16:00;;;;;;;3.1;2.3;;;;;;;32.56;29.70703;1001.867;;;;
2019/07/24 02:18:25;;;;;;;4.3;2.3;;;;;;;32.56;29.69434;1001.917;;;;
2019/07/24 02:20:51;;;;;;;4.2;2.3;;;;;;;32.55;29.70703;1001.908;;;;
2019/07/24 02:21:12;;;;;;;2.6;2.2;;;;;;;32.55;29.70703;1001.903;;;;
2019/07/24 02:23:38;;;;;;;3.2;2.2;;;;;;;32.54;29.71777;1001.929;;;;
2019/07/24 02:26:04;;;;;;;4;2.3;;;;;;;32.54;29.73047;1001.962;;;;
2019/07/24 02:28:29;;;;;;;3.8;2.1;;;;;;;32.53;29.73047;1001.919;;;;
2019/07/24 02:30:54;;;;;;;3.2;2.2;;;;;;;32.53;29.72949;1001.89;;;;
2019/07/24 02:33:20;;;;;;;4.5;2.2;;;;;;;32.52;29.74219;1001.908;;;;
2019/07/24 02:35:45;;;;;;;4.6;2.1;;;;;;;32.51;29.75391;1001.926;;;;
2019/07/24 02:38:10;;;;;;;4.4;2.2;;;;;;;32.51;29.76563;1001.966;;;;
2019/07/24 02:40:35;;;;;;;2.8;2.2;;;;;;;32.5;29.76465;1001.981;;;;
2019/07/24 02:43:01;;;;;;;3;2.1;;;;;;;32.5;29.76465;1001.975;;;;
2019/07/24 02:45:26;;;;;;;4.5;2.3;;;;;;;32.5;29.77734;1001.991;;;;
2019/07/24 02:47:51;;;;;;;4.9;2.2;;;;;;;32.49;29.78906;1001.975;;;;
2019/07/24 02:50:17;;;;;;;3.3;2.2;;;;;;;32.48;29.80078;1001.963;;;;
2019/07/24 02:52:42;;;;;;;2.7;2.3;;;;;;;32.48;29.7998;1001.994;;;;
2019/07/24 02:55:07;;;;;;;4.7;2.3;;;;;;;32.47;29.82422;1001.985;;;;
2019/07/24 02:57:32;;;;;;;3.1;2.3;;;;;;;32.46;29.83691;1001.961;;;;
2019/07/24 02:59:58;;;;;;;4;2.2;;;;;;;32.46;29.83691;1001.958;;;;
2019/07/24 03:02:23;;;;;;;3.1;2.2;;;;;;;32.45;29.85938;1001.972;;;;
2019/07/24 03:04:48;;;;;;;4.4;2.4;;;;;;;32.46;29.87305;1001.977;;;;
2019/07/24 03:07:14;;;;;;;2.9;2.3;;;;;;;32.45;29.86035;1001.954;;;;
2019/07/24 03:09:39;;;;;;;2.3;2;;;;;;;32.44;29.88379;1001.943;;;;
2019/07/24 03:12:04;;;;;;;2.4;2.1;;;;;;;32.43;29.89551;1001.942;;;;
2019/07/24 03:14:30;;;;;;;3.5;2.4;;;;;;;32.42;29.90723;1001.99;;;;
2019/07/24 03:16:55;;;;;;;4.2;2.4;;;;;;;32.42;29.91992;1001.983;;;;
2019/07/24 03:19:21;;;;;;;2.7;2.1;;;;;;;32.41;29.93164;1001.99;;;;
2019/07/24 03:21:45;;;;;;;3.3;2.3;;;;;;;32.4;29.94336;1001.977;;;;
2019/07/24 03:24:11;;;;;;;4.1;2.3;;;;;;;32.39;29.9668;1001.954;;;;
2019/07/24 03:26:36;;;;;;;3.5;2.2;;;;;;;32.38;29.97949;1001.959;;;;
2019/07/24 03:26:46;;;;;;;2.8;2;;;;;;;32.38;29.99121;1001.966;;;;
2019/07/24 03:29:11;;;;;;;5;2.3;;;;;;;32.37;30.00293;1001.967;;;;
2019/07/24 03:31:37;;;;;;;3.8;2.3;;;;;;;32.37;30.01465;1001.993;;;;
2019/07/24 03:34:56;;;;;;;2.6;2;;;;;;;32.35;30.03906;1001.965;;;;
2019/07/24 03:37:21;;;;;;;3.7;2.3;;;;;;;32.34;30.07422;1001.928;;;;
2019/07/24 03:39:46;;;;;;;3.1;2.1;;;;;;;32.34;30.07422;1001.947;;;;
2019/07/24 03:42:12;;;;;;;3.2;2.3;;;;;;;32.34;30.08594;1001.962;;;;
2019/07/24 03:44:36;;;;;;;4.8;2.3;;;;;;;32.34;30.09863;1001.975;;;;
2019/07/24 03:47:55;;;;;;;3.6;2.2;;;;;;;32.33;30.14746;1001.957;;;;
2019/07/24 03:50:21;;;;;;;3.7;2.2;;;;;;;32.32;30.18457;1001.957;;;;
2019/07/24 03:52:45;;;;;;;4;2.4;;;;;;;32.31;30.21973;1001.944;;;;
2019/07/24 03:55:11;;;;;;;3.1;2.2;;;;;;;32.3;30.25684;1001.955;;;;
2019/07/24 03:57:37;;;;;;;4.1;2.2;;;;;;;32.29;30.26855;1001.932;;;;
2019/07/24 04:00:56;;;;;;;4.6;2.1;;;;;;;32.3;30.29297;1001.967;;;;
2019/07/24 04:03:21;;;;;;;4.6;2.4;;;;;;;32.29;30.3418;1001.957;;;;
2019/07/24 04:05:46;;;;;;;3.3;2.3;;;;;;;32.28;30.37793;1001.945;;;;
2019/07/24 04:06:21;;;;;;;4.7;2.4;;;;;;;32.28;30.37793;1001.949;;;;
2019/07/24 04:08:47;;;;;;;3.5;1.9;;;;;;;32.28;30.40234;1001.922;;;;
2019/07/24 04:11:11;;;;;;;2.5;2.3;;;;;;;32.27;30.45117;1001.945;;;;
2019/07/24 04:13:37;;;;;;;3.6;2.2;;;;;;;32.25;30.47461;1001.972;;;;
2019/07/24 04:16:02;;;;;;;5.7;2.5;;;;;;;32.26;30.5;1001.899;;;;
2019/07/24 04:18:27;;;;;;;3.1;2.2;;;;;;;32.25;30.49902;1001.876;;;;
2019/07/24 04:20:52;;;;;;;6.7;2.5;;;;;;;32.24;30.52344;1001.855;;;;
2019/07/24 04:23:17;;;;;;;3.2;2.1;;;;;;;32.24;30.54785;1001.904;;;;
2019/07/24 04:25:43;;;;;;;3.4;2.3;;;;;;;32.24;30.58496;1001.901;;;;
2019/07/24 04:28:08;;;;;;;4.4;2.2;;;;;;;32.22;30.6084;1001.865;;;;
2019/07/24 04:30:33;;;;;;;4;2.4;;;;;;;32.23;30.62109;1001.873;;;;
2019/07/24 04:32:58;;;;;;;3.2;2.3;;;;;;;32.23;30.64551;1001.891;;;;
2019/07/24 04:35:24;;;;;;;4.1;2.3;;;;;;;32.23;30.6582;1001.915;;;;
2019/07/24 04:37:50;;;;;;;3;2.3;;;;;;;32.23;30.68262;1001.93;;;;
2019/07/24 04:40:15;;;;;;;3.1;2.3;;;;;;;32.22;30.70605;1001.965;;;;
2019/07/24 04:42:40;;;;;;;4.7;2.3;;;;;;;32.22;30.74316;1002.02;;;;
2019/07/24 04:45:59;;;;;;;3.2;2.2;;;;;;;32.21;30.78027;1002.051;;;;
2019/07/24 04:48:24;;;;;;;3.9;2.4;;;;;;;32.21;30.79297;1002.086;;;;
2019/07/24 04:49:14;;;;;;;3.9;2.4;;;;;;;32.22;30.80469;1002.078;;;;
2019/07/24 04:51:40;;;;;;;5.2;2.6;;;;;;;32.23;30.80566;1002.086;;;;
2019/07/24 04:54:05;;;;;;;4.5;2.2;;;;;;;32.22;30.81738;1002.093;;;;
2019/07/24 04:56:31;;;;;;;2.8;2.4;;;;;;;32.22;30.8418;1002.106;;;;
2019/07/24 04:58:55;;;;;;;3.8;2.4;;;;;;;32.22;30.8418;1002.12;;;;
2019/07/24 05:01:20;;;;;;;3.4;2.3;;;;;;;32.22;30.85449;1002.11;;;;
2019/07/24 05:03:46;;;;;;;2.5;2.1;;;;;;;32.22;30.86621;1002.104;;;;
2019/07/24 05:06:11;;;;;;;4.8;2.2;;;;;;;32.21;30.86621;1002.046;;;;
2019/07/24 05:09:30;;;;;;;3.5;2.4;;;;;;;32.2;30.90234;1002.094;;;;
2019/07/24 05:10:20;;;;;;;3.5;2.5;;;;;;;32.2;30.91406;1002.111;;;;
2019/07/24 05:14:03;;;;;;;6.5;2.5;;;;;;;32.21;30.92773;1002.081;;;;
2019/07/24 05:16:28;;;;;;;3;2.3;;;;;;;32.21;30.92773;1002.106;;;;
2019/07/24 05:18:53;;;;;;;4.4;2.3;;;;;;;32.22;30.92773;1002.151;;;;
2019/07/24 05:19:14;;;;;;;3.3;2.3;;;;;;;32.22;30.92773;1002.13;;;;
2019/07/24 05:21:40;;;;;;;6.1;2.4;;;;;;;32.23;30.94141;1002.167;;;;
2019/07/24 05:24:05;;;;;;;4.6;2.2;;;;;;;32.24;30.94238;1002.197;;;;
2019/07/24 05:26:31;;;;;;;3.4;2.5;;;;;;;32.25;30.9668;1002.192;;;;
2019/07/24 05:28:56;;;;;;;3.5;2.6;;;;;;;32.24;30.99121;1002.268;;;;
2019/07/24 05:29:22;;;;;;;4.7;2.7;;;;;;;32.24;30.99121;1002.234;;;;
2019/07/24 05:31:47;;;;;;;5;2.3;;;;;;;32.27;30.96875;1002.241;;;;
2019/07/24 05:34:12;;;;;;;3.8;2.3;;;;;;;32.27;30.96875;1002.243;;;;
2019/07/24 05:36:38;;;;;;;4;2.4;;;;;;;32.27;30.96875;1002.302;;;;
2019/07/24 05:39:04;;;;;;;4.3;2.4;;;;;;;32.28;30.98047;1002.338;;;;
2019/07/24 05:42:21;;;;;;;3.6;2.5;;;;;;;32.28;31.00586;1002.341;;;;
2019/07/24 05:44:47;;;;;;;5.5;2.6;;;;;;;32.3;31.03223;1002.353;;;;
2019/07/24 05:48:06;;;;;;;4.9;2.8;;;;;;;32.3;31.10547;1002.338;;;;
2019/07/24 05:50:31;;;;;;;5.1;2.8;;;;;;;32.29;31.16699;1002.303;;;;
2019/07/24 05:52:56;;;;;;;5.5;2.8;;;;;;;32.31;31.18066;1002.341;;;;
2019/07/24 05:55:23;;;;;;;7.7;3.1;;;;;;;32.3;31.24219;1002.295;;;;
2019/07/24 05:57:48;;;;;;;4.7;2.9;;;;;;;32.32;31.23047;1002.309;;;;
2019/07/24 06:00:13;;;;;;;5.6;2.8;;;;;;;32.33;31.23145;1002.341;;;;
2019/07/24 06:03:31;;;;;;;6.1;3;;;;;;;32.36;31.20801;1002.319;;;;
2019/07/24 06:05:57;;;;;;;5.6;2.8;;;;;;;32.37;31.20898;1002.279;;;;
2019/07/24 06:08:22;;;;;;;8.4;3.2;;;;;;;32.38;31.23535;1002.27;;;;
2019/07/24 06:10:48;;;;;;;6.6;3.1;;;;;;;32.4;31.24805;1002.239;;;;
2019/07/24 06:13:13;;;;;;;6.6;3.5;;;;;;;32.42;31.27441;1002.259;;;;
2019/07/24 06:15:39;;;;;;;8.6;3.2;;;;;;;32.43;31.33594;1002.22;;;;
2019/07/24 06:18:04;;;;;;;6.1;3.2;;;;;;;32.46;31.36328;1002.264;;;;
2019/07/24 06:20:29;;;;;;;6.6;3.4;;;;;;;32.47;31.37598;1002.279;;;;
2019/07/24 06:22:55;;;;;;;8.5;3.5;;;;;;;32.48;31.45117;1002.288;;;;
2019/07/24 06:25:20;;;;;;;7.3;3.2;;;;;;;32.5;31.46484;1002.331;;;;
2019/07/24 06:27:45;;;;;;;9.7;3.6;;;;;;;32.51;31.44141;1002.318;;;;
2019/07/24 06:31:04;;;;;;;10.6;3.6;;;;;;;32.54;31.4668;1002.361;;;;
2019/07/24 06:34:23;;;;;;;7.1;3.6;;;;;;;32.56;31.45605;1002.37;;;;
2019/07/24 06:37:41;;;;;;;7.6;3.5;;;;;;;32.6;31.40918;1002.4;;;;
2019/07/24 06:40:07;;;;;;;9.7;3.7;;;;;;;32.62;31.38574;1002.403;;;;
2019/07/24 06:40:17;;;;;;;7.6;3.7;;;;;;;32.62;31.37402;1002.374;;;;
2019/07/24 06:42:43;;;;;;;8.3;3.4;;;;;;;32.66;31.35254;1002.416;;;;
2019/07/24 06:45:08;;;;;;;9.3;3.9;;;;;;;32.68;31.35352;1002.383;;;;
2019/07/24 06:47:33;;;;;;;11.1;3.7;;;;;;;32.7;31.33105;1002.431;;;;
2019/07/24 06:49:58;;;;;;;8.6;4;;;;;;;32.73;31.24707;1002.47;;;;
2019/07/24 06:52:24;;;;;;;9.4;4;;;;;;;32.77;31.22461;1002.508;;;;
2019/07/24 06:54:49;;;;;;;9.6;3.4;;;;;;;32.79;31.20215;1002.49;;;;
2019/07/24 06:55:22;;;;;;;10.6;3.8;;;;;;;32.79;31.20215;1002.435;;;;
2019/07/24 06:57:48;;;;;;;8;3.4;;;;;;;32.82;31.17871;1002.419;;;;
2019/07/24 07:01:07;;;;;;;6.2;3.4;;;;;;;32.86;31.14355;1002.372;;;;
2019/07/24 07:03:32;;;;;;;6.6;3.5;;;;;;;32.87;31.13281;1002.422;;;;
2019/07/24 07:05:57;;;;;;;9.1;3.7;;;;;;;32.89;31.09766;1002.427;;;;
2019/07/24 07:06:24;;;;;;;6.7;3.7;;;;;;;32.91;31.11035;1002.418;;;;
2019/07/24 07:08:49;;;;;;;9.6;3.5;;;;;;;32.93;31.03809;1002.439;;;;
2019/07/24 07:11:14;;;;;;;7.5;3.3;;;;;;;32.96;31.00293;1002.446;;;;
2019/07/24 07:13:39;;;;;;;11.6;4;;;;;;;32.98;30.99219;1002.441;;;;
2019/07/24 07:16:05;;;;;;;8.4;3.6;;;;;;;33;30.98145;1002.4;;;;
2019/07/24 07:18:30;;;;;;;11.3;4;;;;;;;33.02;30.94531;1002.394;;;;
2019/07/24 07:20:56;;;;;;;9.7;3.8;;;;;;;33.04;30.93457;1002.462;;;;
2019/07/24 07:23:21;;;;;;;14.1;3.9;;;;;;;33.05;30.91113;1002.494;;;;
2019/07/24 07:25:46;;;;;;;10.1;4;;;;;;;33.08;31.10938;1002.495;;;;
2019/07/24 07:28:11;;;;;;;8.1;3.7;;;;;;;33.09;31.09766;1002.516;;;;
2019/07/24 07:30:36;;;;;;;9.7;3.7;;;;;;;33.1;31.0498;1002.55;;;;
2019/07/24 07:33:02;;;;;;;7.2;3.9;;;;;;;33.12;31.01465;1002.56;;;;
2019/07/24 07:35:27;;;;;;;10.5;4.3;;;;;;;33.15;31.07813;1002.547;;;;
2019/07/24 07:37:52;;;;;;;8.6;3.9;;;;;;;33.17;31.11621;1002.559;;;;
2019/07/24 07:38:19;;;;;;;9.6;4.4;;;;;;;33.17;31.30176;1002.521;;;;
2019/07/24 07:40:44;;;;;;;9.4;4.3;;;;;;;33.19;31.16699;1002.516;;;;
2019/07/24 07:43:10;;;;;;;7.5;4.2;;;;;;;33.21;31.23047;1002.529;;;;
2019/07/24 07:45:35;;;;;;;9.5;4.2;;;;;;;33.2;31.2793;1002.54;;;;
2019/07/24 07:48:01;;;;;;;10;4.2;;;;;;;33.21;31.14355;1002.54;;;;
2019/07/24 07:50:26;;;;;;;9.7;4;;;;;;;33.23;31.1084;1002.492;;;;
2019/07/24 07:53:45;;;;;;;10;4.3;;;;;;;33.26;31.02344;1002.468;;;;
2019/07/24 07:56:10;;;;;;;11.6;4.8;;;;;;;33.28;30.98828;1002.497;;;;
2019/07/24 07:58:36;;;;;;;11.1;5;;;;;;;33.31;30.91699;1002.478;;;;
2019/07/24 08:01:01;;;;;;;11;5.2;;;;;;;33.34;30.94238;1002.493;;;;
2019/07/24 08:04:20;;;;;;;11.6;4.8;;;;;;;33.35;30.80762;1002.571;;;;
2019/07/24 08:06:45;;;;;;;8.9;4.4;;;;;;;33.35;30.70898;1002.535;;;;
2019/07/24 08:09:11;;;;;;;8.7;4.2;;;;;;;33.37;30.67383;1002.535;;;;
2019/07/24 08:11:36;;;;;;;9;4.1;;;;;;;33.38;30.47656;1002.584;;;;
2019/07/24 08:14:01;;;;;;;10.3;4.6;;;;;;;33.4;30.49023;1002.558;;;;
2019/07/24 08:16:26;;;;;;;9.7;4.8;;;;;;;33.43;30.45508;1002.587;;;;
2019/07/24 08:18:52;;;;;;;8;3.9;;;;;;;33.44;30.33301;1002.593;;;;
2019/07/24 08:22:11;;;;;;;8.7;4;;;;;;;33.46;30.32129;1002.555;;;;
2019/07/24 08:24:36;;;;;;;6.9;4;;;;;;;33.48;30.24805;1002.591;;;;
2019/07/24 08:27:01;;;;;;;8.2;4;;;;;;;33.5;30.21289;1002.61;;;;
2019/07/24 08:29:26;;;;;;;11.7;4.3;;;;;;;33.51;30.22656;1002.607;;;;
2019/07/24 08:31:51;;;;;;;6.8;3.8;;;;;;;33.53;30.30176;1002.589;;;;
2019/07/24 08:34:17;;;;;;;8.5;4.1;;;;;;;33.53;30.33887;1002.579;;;;
2019/07/24 08:36:42;;;;;;;5.7;3.9;;;;;;;33.54;30.38867;1002.601;;;;
2019/07/24 08:39:07;;;;;;;7.2;3.9;;;;;;;33.56;30.35254;1002.624;;;;
2019/07/24 08:41:32;;;;;;;11.7;4.7;;;;;;;33.59;30.3916;1002.628;;;;
2019/07/24 08:42:18;;;;;;;8.2;4.3;;;;;;;33.59;30.4541;1002.623;;;;
2019/07/24 08:44:44;;;;;;;9.3;4.2;;;;;;;33.61;30.47949;1002.654;;;;
2019/07/24 08:47:09;;;;;;;8.3;3.8;;;;;;;33.63;30.50586;1002.675;;;;
2019/07/24 08:50:28;;;;;;;9.3;4.2;;;;;;;33.65;30.54395;1002.625;;;;
2019/07/24 08:52:53;;;;;;;7.8;4;;;;;;;33.67;30.43359;1002.641;;;;
2019/07/24 08:56:12;;;;;;;10.8;4.2;;;;;;;33.71;30.56055;1002.68;;;;
2019/07/24 08:58:37;;;;;;;10.9;4.1;;;;;;;33.74;30.69727;1002.657;;;;
2019/07/24 08:59:15;;;;;;;6.9;4.2;;;;;;;33.75;30.67383;1002.686;;;;
2019/07/24 09:01:41;;;;;;;6.7;4.2;;;;;;;33.76;30.81055;1002.669;;;;
2019/07/24 09:05:00;;;;;;;8.2;4.6;;;;;;;33.79;30.77637;1002.644;;;;
2019/07/24 09:07:25;;;;;;;11.1;5.1;;;;;;;33.81;30.56641;1002.654;;;;
2019/07/24 09:09:50;;;;;;;7.9;5.3;;;;;;;33.84;30.63086;1002.662;;;;
2019/07/24 09:12:15;;;;;;;11.2;5.1;;;;;;;33.86;30.64453;1002.612;;;;
2019/07/24 09:14:41;;;;;;;10;5.3;;;;;;;33.9;30.58496;1002.63;;;;
2019/07/24 09:17:06;;;;;;;9.9;5.1;;;;;;;33.93;30.5625;1002.625;;;;
2019/07/24 09:19:31;;;;;;;11.1;5.1;;;;;;;33.95;30.62598;1002.607;;;;
2019/07/24 09:21:57;;;;;;;7.8;4.4;;;;;;;33.98;30.67676;1002.565;;;;
2019/07/24 09:24:21;;;;;;;9.1;4.9;;;;;;;34.01;30.55566;1002.589;;;;
2019/07/24 09:24:31;;;;;;;10.6;5;;;;;;;34.01;30.60547;1002.605;;;;
2019/07/24 09:26:59;;;;;;;8.6;4.7;;;;;;;34.03;30.59473;1002.593;;;;
2019/07/24 09:29:22;;;;;;;11.7;4.6;;;;;;;34.06;30.58398;1002.667;;;;
2019/07/24 09:31:48;;;;;;;9.3;5.2;;;;;;;34.08;30.51074;1002.698;;;;
2019/07/24 09:34:13;;;;;;;8.3;4.3;;;;;;;34.1;30.56152;1002.686;;;;
2019/07/24 09:34:39;;;;;;;8.1;5;;;;;;;34.11;30.59863;1002.687;;;;
2019/07/24 09:37:04;;;;;;;7.6;4.9;;;;;;;34.14;30.58887;1002.699;;;;
2019/07/24 09:39:30;;;;;;;7.6;4.5;;;;;;;34.16;30.50391;1002.653;;;;
2019/07/24 09:41:55;;;;;;;9.3;4.5;;;;;;;34.18;30.50488;1002.639;;;;
2019/07/24 09:44:20;;;;;;;8.3;4.5;;;;;;;34.18;30.49316;1002.628;;;;
2019/07/24 09:46:45;;;;;;;11.5;4.5;;;;;;;34.19;30.44434;1002.587;;;;
2019/07/24 09:49:10;;;;;;;8.9;4.9;;;;;;;34.21;30.32227;1002.615;;;;
2019/07/24 09:51:36;;;;;;;8.7;4.8;;;;;;;34.23;30.27441;1002.607;;;;
2019/07/24 09:54:01;;;;;;;8.6;6.2;;;;;;;34.24;30.22559;1002.607;;;;
2019/07/24 09:56:26;;;;;;;11.5;5.6;;;;;;;34.26;30.17676;1002.591;;;;
2019/07/24 09:58:52;;;;;;;10.4;5;;;;;;;34.29;30.1543;1002.577;;;;
2019/07/24 10:01:17;;;;;;;10.9;5.3;;;;;;;34.33;30.02051;1002.605;;;;
2019/07/24 10:03:42;;;;;;;9.5;4.7;;;;;;;34.34;29.91016;1002.592;;;;
2019/07/24 10:06:08;;;;;;;7.4;4.3;;;;;;;34.35;29.92285;1002.579;;;;
2019/07/24 10:08:33;;;;;;;7.5;4.8;;;;;;;34.36;29.875;1002.629;;;;
2019/07/24 10:10:58;;;;;;;12.1;4.7;;;;;;;34.39;29.88867;1002.583;;;;
2019/07/24 10:13:23;;;;;;;6.8;4.2;;;;;;;34.39;29.83984;1002.559;;;;
2019/07/24 10:15:48;;;;;;;9.6;4.4;;;;;;;34.41;29.71582;1002.568;;;;
2019/07/24 10:18:13;;;;;;;7.2;4.4;;;;;;;34.41;29.66699;1002.572;;;;
2019/07/24 10:20:38;;;;;;;6.9;3.8;;;;;;;34.4;29.5918;1002.625;;;;
2019/07/24 10:23:04;;;;;;;8.2;4.3;;;;;;;34.45;29.57031;1002.519;;;;
2019/07/24 10:25:29;;;;;;;5.3;3.9;;;;;;;34.48;29.3623;1002.495;;;;
2019/07/24 10:27:54;;;;;;;6.2;4.2;;;;;;;34.5;29.33887;1002.492;;;;
2019/07/24 10:30:20;;;;;;;5.8;4;;;;;;;34.49;29.33887;1002.45;;;;
2019/07/24 10:32:45;;;;;;;7.4;3.9;;;;;;;34.52;29.24121;1002.459;;;;
2019/07/24 10:35:10;;;;;;;7.3;3.8;;;;;;;34.56;28.94727;1002.441;;;;
2019/07/24 10:37:37;;;;;;;5.4;3.5;;;;;;;34.59;28.8252;1002.453;;;;
2019/07/24 10:40:00;;;;;;;6.2;4;;;;;;;34.63;28.74121;1002.387;;;;
2019/07/24 10:42:27;;;;;;;5.9;3.8;;;;;;;34.64;28.4707;1002.365;;;;
2019/07/24 10:44:50;;;;;;;5.7;3.7;;;;;;;34.65;28.35938;1002.365;;;;
2019/07/24 10:47:15;;;;;;;8.5;3.7;;;;;;;34.66;27.91406;1002.368;;;;
2019/07/24 10:50:34;;;;;;;6.3;3.3;;;;;;;34.69;28.17578;1002.388;;;;
2019/07/24 10:52:59;;;;;;;5.9;3.7;;;;;;;34.72;28.0791;1002.378;;;;
2019/07/24 10:55:24;;;;;;;6.2;3.6;;;;;;;34.77;27.88379;1002.363;;;;
2019/07/24 10:57:50;;;;;;;6.8;3.4;;;;;;;34.8;27.62598;1002.332;;;;
2019/07/24 11:00:15;;;;;;;4.5;3.3;;;;;;;34.8;27.77441;1002.396;;;;
2019/07/24 11:03:34;;;;;;;6.9;3.5;;;;;;;34.81;27.71289;1002.386;;;;
2019/07/24 11:06:00;;;;;;;5.7;3.4;;;;;;;34.84;27.63965;1002.383;;;;
2019/07/24 11:08:25;;;;;;;6;3.3;;;;;;;34.85;27.61621;1002.353;;;;
2019/07/24 11:10:53;;;;;;;6.4;3.4;;;;;;;34.86;27.62891;1002.312;;;;
2019/07/24 11:13:16;;;;;;;4.8;3.3;;;;;;;34.87;27.56836;1002.259;;;;
2019/07/24 11:16:34;;;;;;;5.9;3.6;;;;;;;34.88;27.54395;1002.273;;;;
2019/07/24 11:19:00;;;;;;;7.9;3.7;;;;;;;34.89;27.55664;1002.243;;;;
2019/07/24 11:21:25;;;;;;;8;3.5;;;;;;;34.9;27.60742;1002.268;;;;
2019/07/24 11:23:50;;;;;;;4.5;3.2;;;;;;;34.92;27.62109;1002.266;;;;
2019/07/24 11:27:09;;;;;;;7.6;3.6;;;;;;;34.95;27.56055;1002.218;;;;
2019/07/24 11:29:36;;;;;;;6.3;3.4;;;;;;;34.98;27.48828;1002.181;;;;
2019/07/24 11:32:01;;;;;;;5.9;3.2;;;;;;;35;27.42773;1002.165;;;;
2019/07/24 11:35:20;;;;;;;6;3.3;;;;;;;35.04;27.42969;1002.139;;;;
2019/07/24 11:37:45;;;;;;;6.1;3.2;;;;;;;35.06;27.50488;1002.07;;;;
2019/07/24 11:40:11;;;;;;;8;3.6;;;;;;;35.08;27.50684;1002.049;;;;
2019/07/24 11:42:38;;;;;;;8.9;3.8;;;;;;;35.12;27.66992;1001.997;;;;
2019/07/24 11:45:02;;;;;;;7.4;3.8;;;;;;;35.15;27.58496;1001.991;;;;
2019/07/24 11:47:30;;;;;;;9.3;3.8;;;;;;;35.17;27.54883;1002;;;;
2019/07/24 11:50:00;;;;;;;7.8;3.9;;;;;;;35.17;27.72266;1002.021;;;;
2019/07/24 11:52:21;;;;;;;8.4;3.9;;;;;;;35.18;27.79785;1001.973;;;;
2019/07/24 11:54:48;;;;;;;6.6;3.8;;;;;;;35.21;27.94824;1001.963;;;;
2019/07/24 11:58:05;;;;;;;11.3;3.6;;;;;;;35.23;27.91211;1001.931;;;;
2019/07/24 12:00:30;;;;;;;5.3;3.5;;;;;;;35.24;27.9502;1001.915;;;;
2019/07/24 12:02:55;;;;;;;8;3.7;;;;;;;35.27;28.02539;1001.89;;;;
2019/07/24 12:05:21;;;;;;;7.8;3.7;;;;;;;35.3;27.87891;1001.876;;;;
2019/07/24 12:07:46;;;;;;;6.2;3.5;;;;;;;35.3;27.91699;1001.888;;;;
2019/07/24 12:10:11;;;;;;;8.9;4.3;;;;;;;35.32;27.83105;1001.904;;;;
2019/07/24 12:12:36;;;;;;;7.8;3.8;;;;;;;35.33;27.89355;1001.872;;;;
2019/07/24 12:15:02;;;;;;;7.1;4;;;;;;;35.33;27.83105;1001.827;;;;
2019/07/24 12:17:27;;;;;;;9.9;3.8;;;;;;;35.35;27.89453;1001.824;;;;
2019/07/24 12:19:53;;;;;;;6.6;3.9;;;;;;;35.37;27.96973;1001.81;;;;
2019/07/24 12:22:19;;;;;;;12.1;4.2;;;;;;;35.39;27.80957;1001.792;;;;
2019/07/24 12:25:38;;;;;;;6.8;4;;;;;;;35.4;28.0332;1001.722;;;;
2019/07/24 12:28:03;;;;;;;7.1;4.2;;;;;;;35.42;27.94824;1001.736;;;;
2019/07/24 12:30:28;;;;;;;7.3;4.3;;;;;;;35.46;27.71484;1001.748;;;;
2019/07/24 12:32:53;;;;;;;8.2;4.5;;;;;;;35.5;27.7793;1001.742;;;;
2019/07/24 12:35:19;;;;;;;6.2;3.9;;;;;;;35.53;27.66992;1001.677;;;;
2019/07/24 12:37:44;;;;;;;8.1;3.7;;;;;;;35.6;27.53809;1001.676;;;;
2019/07/24 12:40:09;;;;;;;6.6;4;;;;;;;35.67;27.31934;1001.663;;;;
2019/07/24 12:42:35;;;;;;;6.7;4.1;;;;;;;35.75;27.18652;1001.654;;;;
2019/07/24 12:45:54;;;;;;;8.2;4.9;;;;;;;35.81;27.25293;1001.621;;;;
2019/07/24 12:48:19;;;;;;;9.9;4.6;;;;;;;35.85;27.06934;1001.609;;;;
2019/07/24 12:50:44;;;;;;;8.6;4.5;;;;;;;35.9;26.94727;1001.528;;;;
2019/07/24 12:53:09;;;;;;;8.7;5.2;;;;;;;35.95;26.87598;1001.523;;;;
2019/07/24 12:55:37;;;;;;;8.8;5.9;;;;;;;35.94;26.4043;1001.597;;;;
2019/07/24 12:58:00;;;;;;;9.5;5.8;;;;;;;35.94;26.25586;1001.541;;;;
2019/07/24 13:00:25;;;;;;;8.3;5.3;;;;;;;35.92;26.11719;1001.479;;;;
2019/07/24 13:02:51;;;;;;;11.2;6;;;;;;;35.91;26.22949;1001.46;;;;
2019/07/24 13:06:10;;;;;;;9.8;6.4;;;;;;;35.88;26.25195;1001.446;;;;
2019/07/24 13:08:35;;;;;;;10;6.1;;;;;;;35.85;26.03906;1001.392;;;;
2019/07/24 13:11:01;;;;;;;8.1;5.3;;;;;;;35.84;26.22461;1001.38;;;;
2019/07/24 13:14:20;;;;;;;12.7;6;;;;;;;35.81;26.29785;1001.389;;;;
2019/07/24 13:17:39;;;;;;;8.9;5.9;;;;;;;35.78;26.30859;1001.383;;;;
2019/07/24 13:18:27;;;;;;;9.1;6.2;;;;;;;35.78;26.27051;1001.364;;;;
2019/07/24 13:20:53;;;;;;;9.4;6;;;;;;;35.78;26.22168;1001.282;;;;
2019/07/24 13:23:18;;;;;;;9.5;5.9;;;;;;;35.78;26.18457;1001.282;;;;
2019/07/24 13:25:44;;;;;;;11.9;6.8;;;;;;;35.8;25.96191;1001.238;;;;
2019/07/24 13:28:09;;;;;;;13.2;6.7;;;;;;;35.79;25.8125;1001.204;;;;
2019/07/24 13:30:35;;;;;;;11.7;6.7;;;;;;;35.78;25.67578;1001.182;;;;
2019/07/24 13:33:00;;;;;;;10.5;6.5;;;;;;;35.8;25.71387;1001.209;;;;
2019/07/24 13:35:25;;;;;;;9.4;5.3;;;;;;;35.83;25.29395;1001.215;;;;
2019/07/24 13:37:51;;;;;;;7.7;5.8;;;;;;;35.84;25.25684;1001.215;;;;
2019/07/24 13:40:15;;;;;;;10.5;5.8;;;;;;;35.83;25.19434;1001.184;;;;
2019/07/24 13:40:29;;;;;;;10.6;6;;;;;;;35.82;25.20703;1001.206;;;;
2019/07/24 13:43:48;;;;;;;11.4;6.8;;;;;;;35.82;25.87598;1001.182;;;;
2019/07/24 13:46:15;;;;;;;12.4;6.4;;;;;;;35.83;25.79004;1001.187;;;;
2019/07/24 13:48:38;;;;;;;10.1;5.9;;;;;;;35.85;25.94043;1001.203;;;;
2019/07/24 13:51:04;;;;;;;8.3;6;;;;;;;35.86;25.92773;1001.155;;;;
2019/07/24 13:53:29;;;;;;;14.4;6.5;;;;;;;35.86;26.3623;1001.188;;;;
2019/07/24 13:55:54;;;;;;;16.8;6.3;;;;;;;35.86;27.42871;1001.175;;;;
2019/07/24 13:59:13;;;;;;;14.7;6.2;;;;;;;35.82;27.84863;1001.154;;;;
2019/07/24 14:02:33;;;;;;;16.2;6.4;;;;;;;35.85;27.91309;1001.108;;;;
2019/07/24 14:04:58;;;;;;;15.7;6.4;;;;;;;35.88;28.43555;1001.118;;;;
2019/07/24 14:07:23;;;;;;;16.4;6.2;;;;;;;35.94;28.58789;1001.124;;;;
2019/07/24 14:09:50;;;;;;;13.7;5.7;;;;;;;36;28.90234;1001.18;;;;